Time;durP1;ratioP1;P1;durP2;ratioP2;P2;SDS_P1;SDS_P2;PMS_P1;PMS_P2;Temp;Humidity;BMP_temperature;BMP_pressure;BME280_temperature;BME280_humidity;BME280_pressure;Samples;Min_cycle;Max_cycle;Signal;HPM_P1;HPM_P2
2022/09/29 00:00:34;;;;;;;5.32;4.55;;;;;;;8.90;75.12;98715.38;5112538;28;20055;-60
2022/09/29 00:03:01;;;;;;;5.80;4.75;;;;;;;8.87;74.55;98716.06;5114690;28;20058;-59
2022/09/29 00:05:29;;;;;;;5.50;4.40;;;;;;;8.86;75.25;98714.44;5114156;28;20070;-60
2022/09/29 00:07:58;;;;;;;4.97;4.40;;;;;;;8.85;74.37;98716.41;5114304;28;20055;-60
2022/09/29 00:10:25;;;;;;;6.53;5.43;;;;;;;8.83;73.61;98718.72;5114649;28;20488;-59
2022/09/29 00:12:53;;;;;;;5.97;3.90;;;;;;;8.84;74.42;98717.59;5114278;28;20055;-60
2022/09/29 00:15:20;;;;;;;4.90;4.28;;;;;;;8.87;74.84;98716.88;5107917;28;20059;-60
2022/09/29 00:17:48;;;;;;;5.28;4.32;;;;;;;8.88;73.91;98720.44;5114392;28;20428;-58
2022/09/29 00:20:15;;;;;;;6.05;4.55;;;;;;;8.89;74.71;98710.97;5113476;28;20051;-60
2022/09/29 00:22:43;;;;;;;4.57;3.97;;;;;;;8.94;74.83;98714.34;5114093;28;20129;-60
2022/09/29 00:25:11;;;;;;;4.53;4.13;;;;;;;8.96;74.29;98702.88;5114090;28;20055;-59
2022/09/29 00:27:39;;;;;;;6.00;4.85;;;;;;;8.97;73.80;98706.47;5108816;28;20060;-60
2022/09/29 00:30:09;;;;;;;5.72;5.10;;;;;;;8.98;74.71;98710.88;5098311;28;20059;-59
2022/09/29 00:32:37;;;;;;;4.32;3.92;;;;;;;8.96;74.45;98702.88;5113771;28;20062;-59
2022/09/29 00:35:07;;;;;;;8.40;4.70;;;;;;;8.93;74.14;98707.16;5113553;28;20051;-60
2022/09/29 00:37:34;;;;;;;5.15;4.20;;;;;;;8.91;74.25;98697.56;5113987;28;20055;-58
2022/09/29 00:40:03;;;;;;;6.20;4.70;;;;;;;8.89;74.43;98697.91;5112516;28;20056;-58
2022/09/29 00:42:32;;;;;;;5.07;4.15;;;;;;;8.87;73.74;98703.00;5112170;28;20063;-59
2022/09/29 00:45:12;;;;;;;4.75;4.20;;;;;;;8.81;72.75;98709.13;5113569;28;20047;-59
2022/09/29 00:47:42;;;;;;;5.80;4.90;;;;;;;8.77;73.53;98706.22;5113638;28;20068;-59
2022/09/29 00:50:14;;;;;;;5.40;4.55;;;;;;;8.73;73.53;98713.63;5113642;28;20506;-59
2022/09/29 00:52:45;;;;;;;5.63;4.68;;;;;;;8.70;73.45;98709.56;5103546;28;20420;-59
2022/09/29 00:55:18;;;;;;;4.47;3.92;;;;;;;8.68;73.04;98716.63;5102239;28;20074;-59
2022/09/29 00:57:50;;;;;;;5.93;4.32;;;;;;;8.65;73.40;98711.75;5097834;28;20377;-59
2022/09/29 01:00:17;;;;;;;5.65;4.25;;;;;;;8.62;73.30;98718.00;5093274;28;20382;-60
2022/09/29 01:02:50;;;;;;;4.93;4.28;;;;;;;8.55;73.91;98710.25;5093241;28;20063;-60
2022/09/29 01:05:21;;;;;;;5.45;4.38;;;;;;;8.48;72.90;98715.53;5092984;28;20380;-59
2022/09/29 01:07:49;;;;;;;5.18;3.85;;;;;;;8.42;73.06;98714.97;5092389;28;20451;-60
2022/09/29 01:10:17;;;;;;;7.10;4.25;;;;;;;8.38;73.46;98707.63;5092764;28;20059;-58
2022/09/29 01:12:48;;;;;;;5.40;4.40;;;;;;;8.33;74.00;98711.44;5111711;28;20067;-60
2022/09/29 01:15:19;;;;;;;6.22;4.07;;;;;;;8.29;73.60;98711.34;5113287;28;20055;-60
2022/09/29 01:17:47;;;;;;;5.45;4.20;;;;;;;8.25;73.49;98709.56;5112963;28;20059;-60
2022/09/29 01:20:17;;;;;;;7.53;4.70;;;;;;;8.20;73.26;98710.59;5113074;28;20055;-59
2022/09/29 01:23:10;;;;;;;6.07;4.28;;;;;;;8.17;74.36;98719.63;5113106;28;20055;-60
2022/09/29 01:26:01;;;;;;;5.70;4.47;;;;;;;8.13;72.86;98715.91;5075662;28;20051;-59
2022/09/29 01:28:57;;;;;;;8.38;4.95;;;;;;;8.02;73.65;98723.84;5092635;28;20063;-60
2022/09/29 01:31:32;;;;;;;5.85;4.57;;;;;;;7.95;73.92;98722.75;5092726;28;20501;-60
2022/09/29 01:34:08;;;;;;;6.05;4.32;;;;;;;7.93;74.39;98725.84;5092765;28;20056;-60
2022/09/29 01:36:47;;;;;;;6.85;4.85;;;;;;;7.95;74.31;98728.28;5092881;28;20056;-59
2022/09/29 01:39:25;;;;;;;7.00;4.18;;;;;;;7.88;73.10;98728.84;5098879;28;20063;-62
2022/09/29 01:41:58;;;;;;;7.72;5.18;;;;;;;7.83;74.95;98726.28;5112989;28;20420;-60
2022/09/29 01:44:30;;;;;;;7.22;5.43;;;;;;;7.80;73.96;98732.50;5094074;28;20059;-60
2022/09/29 01:47:03;;;;;;;5.40;4.50;;;;;;;7.74;74.62;98734.66;5111274;28;20063;-60
2022/09/29 01:49:34;;;;;;;6.25;4.78;;;;;;;7.73;73.86;98741.38;5112966;28;20388;-60
2022/09/29 01:52:06;;;;;;;6.65;4.72;;;;;;;7.77;75.13;98733.16;5112244;28;20055;-60
2022/09/29 01:54:41;;;;;;;6.80;5.10;;;;;;;7.78;73.62;98730.06;5093255;28;20048;-60
2022/09/29 01:57:12;;;;;;;5.53;4.80;;;;;;;7.79;73.61;98731.69;5092245;28;20496;-60
2022/09/29 01:59:46;;;;;;;6.80;5.20;;;;;;;7.79;74.95;98733.63;5092255;28;20423;-59
2022/09/29 02:02:20;;;;;;;6.50;5.15;;;;;;;7.78;75.02;98718.97;5106082;28;20060;-60
2022/09/29 02:04:53;;;;;;;6.55;5.03;;;;;;;7.80;74.92;98722.22;5112278;28;20048;-60
2022/09/29 02:07:27;;;;;;;9.23;5.97;;;;;;;7.80;75.69;98730.53;5109546;28;20063;-60
2022/09/29 02:10:00;;;;;;;7.13;6.00;;;;;;;7.82;74.63;98730.19;5092032;28;20056;-60
2022/09/29 02:12:30;;;;;;;7.75;5.47;;;;;;;7.85;75.32;98724.81;5110025;28;20059;-60
2022/09/29 02:14:59;;;;;;;7.25;5.07;;;;;;;7.89;76.29;98728.50;5112534;28;20052;-59
2022/09/29 02:17:33;;;;;;;8.25;6.00;;;;;;;7.95;74.85;98722.75;5112572;28;20055;-60
2022/09/29 02:20:01;;;;;;;8.68;5.85;;;;;;;7.99;76.17;98732.00;5116498;28;20055;-60
2022/09/29 02:22:28;;;;;;;6.88;5.30;;;;;;;8.02;76.12;98729.38;5114029;28;20062;-60
2022/09/29 02:24:59;;;;;;;7.28;5.53;;;;;;;8.09;76.24;98726.84;5115629;28;20062;-60
2022/09/29 02:27:27;;;;;;;6.13;5.45;;;;;;;8.14;75.06;98731.38;5101029;28;20126;-60
2022/09/29 02:29:55;;;;;;;6.88;5.68;;;;;;;8.18;76.07;98737.06;5096390;28;20067;-60
2022/09/29 02:32:22;;;;;;;6.72;5.70;;;;;;;8.23;74.17;98743.22;5095682;28;20082;-60
2022/09/29 02:34:54;;;;;;;7.07;5.50;;;;;;;8.30;73.89;98737.09;5095523;28;20504;-60
2022/09/29 02:37:42;;;;;;;7.25;5.88;;;;;;;8.34;74.41;98738.84;5106794;28;20063;-60
2022/09/29 02:40:23;;;;;;;7.85;5.88;;;;;;;8.42;75.30;98737.16;5116072;28;20060;-60
2022/09/29 02:43:07;;;;;;;7.82;5.80;;;;;;;8.46;75.09;98738.09;5116195;28;20056;-60
2022/09/29 02:45:45;;;;;;;9.43;5.97;;;;;;;8.49;75.73;98740.19;5116364;28;20052;-59
2022/09/29 02:48:28;;;;;;;7.85;5.93;;;;;;;8.57;75.19;98737.63;5115986;28;20435;-60
2022/09/29 02:51:10;;;;;;;9.27;6.07;;;;;;;8.62;74.56;98734.66;5106741;28;20056;-60
2022/09/29 02:53:51;;;;;;;7.70;6.88;;;;;;;8.64;73.51;98733.16;5095267;28;20056;-53
2022/09/29 02:56:28;;;;;;;8.23;6.47;;;;;;;8.64;74.10;98735.94;5095523;28;20052;-51
2022/09/29 02:59:03;;;;;;;8.52;6.68;;;;;;;8.67;74.49;98743.59;5095489;28;20060;-53
2022/09/29 03:01:31;;;;;;;9.00;6.93;;;;;;;8.71;73.62;98738.13;5095922;28;20066;-53
2022/09/29 03:03:59;;;;;;;6.78;6.03;;;;;;;8.72;74.97;98739.78;5095160;28;20056;-52
2022/09/29 03:06:28;;;;;;;7.93;6.55;;;;;;;8.76;74.71;98740.72;5109134;28;20514;-50
2022/09/29 03:08:55;;;;;;;9.00;6.95;;;;;;;8.75;72.96;98736.28;5114522;28;20397;-50
2022/09/29 03:11:23;;;;;;;7.72;6.03;;;;;;;8.75;73.44;98736.28;5115526;28;20151;-54
2022/09/29 03:13:50;;;;;;;8.82;6.75;;;;;;;8.73;74.09;98738.59;5115326;28;20055;-51
2022/09/29 03:16:17;;;;;;;8.40;7.15;;;;;;;8.70;72.91;98736.53;5104100;28;20059;-52
2022/09/29 03:18:44;;;;;;;8.60;7.00;;;;;;;8.65;73.60;98732.00;5095086;28;20060;-51
2022/09/29 03:21:11;;;;;;;10.18;6.65;;;;;;;8.57;73.32;98730.16;5095233;28;20445;-51
2022/09/29 03:23:41;;;;;;;8.05;6.07;;;;;;;8.54;73.92;98728.03;5094956;28;20051;-53
2022/09/29 03:26:08;;;;;;;9.82;7.32;;;;;;;8.40;73.11;98728.34;5095426;28;20442;-51
2022/09/29 03:28:36;;;;;;;9.13;7.25;;;;;;;8.32;72.09;98726.47;5103637;28;20051;-50
2022/09/29 03:31:08;;;;;;;14.68;6.93;;;;;;;8.28;72.64;98725.53;5114152;28;20515;-51
2022/09/29 03:33:35;;;;;;;8.00;6.65;;;;;;;8.22;72.73;98732.44;5115237;28;20059;-51
2022/09/29 03:36:04;;;;;;;8.00;6.38;;;;;;;8.18;73.60;98725.97;5112844;28;20071;-51
2022/09/29 03:38:31;;;;;;;9.75;7.20;;;;;;;8.11;72.39;98732.88;5114862;28;20062;-51
2022/09/29 03:41:01;;;;;;;10.07;7.30;;;;;;;8.06;73.66;98733.09;5115223;28;20059;-52
2022/09/29 03:43:28;;;;;;;10.48;7.10;;;;;;;7.99;74.21;98738.34;5114915;28;20060;-51
2022/09/29 03:45:56;;;;;;;12.68;7.65;;;;;;;7.95;72.67;98737.41;5114971;28;20056;-49
2022/09/29 03:48:24;;;;;;;9.98;6.97;;;;;;;7.93;73.40;98734.19;5111609;28;20051;-52
2022/09/29 03:50:52;;;;;;;10.57;6.63;;;;;;;7.87;71.93;98741.06;5114597;28;20060;-50
2022/09/29 03:53:19;;;;;;;7.75;6.60;;;;;;;7.79;72.03;98739.19;5114700;28;20055;-52
2022/09/29 03:55:47;;;;;;;9.60;6.97;;;;;;;7.73;73.13;98738.59;5114392;28;20054;-50
2022/09/29 03:58:17;;;;;;;8.95;6.45;;;;;;;7.64;73.73;98741.44;5114468;28;20519;-50
2022/09/29 04:00:45;;;;;;;6.88;6.03;;;;;;;7.58;73.00;98748.31;5114656;28;20058;-50
2022/09/29 04:03:12;;;;;;;8.13;6.00;;;;;;;7.53;73.61;98745.72;5100142;28;20067;-50
2022/09/29 04:05:39;;;;;;;7.03;5.28;;;;;;;7.50;73.61;98744.44;5093398;28;20396;-51
2022/09/29 04:08:07;;;;;;;5.97;4.60;;;;;;;7.44;74.01;98747.75;5111472;28;20059;-52
2022/09/29 04:10:35;;;;;;;8.32;5.30;;;;;;;7.40;74.09;98752.34;5114299;28;20059;-51
2022/09/29 04:13:02;;;;;;;6.70;4.85;;;;;;;7.36;73.54;98746.66;5114218;28;20059;-53
2022/09/29 04:15:31;;;;;;;7.25;5.38;;;;;;;7.32;74.30;98751.25;5113862;28;20506;-54
2022/09/29 04:17:58;;;;;;;8.80;6.30;;;;;;;7.27;74.04;98748.69;5114444;28;20652;-53
2022/09/29 04:20:26;;;;;;;9.18;5.47;;;;;;;7.20;73.64;98751.97;5101855;28;20420;-53
2022/09/29 04:22:53;;;;;;;6.80;4.93;;;;;;;7.15;73.06;98754.94;5093711;28;20056;-51
2022/09/29 04:25:21;;;;;;;6.03;3.85;;;;;;;7.10;73.13;98752.38;5093691;28;20056;-51
2022/09/29 04:27:48;;;;;;;5.88;4.18;;;;;;;7.03;73.81;98760.34;5093937;28;20060;-52
2022/09/29 04:30:15;;;;;;;5.25;4.18;;;;;;;6.98;73.91;98764.13;5093906;28;20382;-50
2022/09/29 04:32:44;;;;;;;4.35;3.70;;;;;;;6.94;73.98;98767.91;5093465;28;20067;-50
2022/09/29 04:35:11;;;;;;;5.53;3.78;;;;;;;6.87;72.99;98768.44;5103709;28;20494;-51
2022/09/29 04:37:38;;;;;;;4.72;3.50;;;;;;;6.86;73.87;98770.34;5113722;28;20055;-50
2022/09/29 04:40:07;;;;;;;5.82;4.28;;;;;;;6.81;73.42;98776.09;5112848;28;20419;-51
2022/09/29 04:42:34;;;;;;;6.57;5.75;;;;;;;6.79;73.45;98781.13;5114011;28;20411;-52
2022/09/29 04:45:02;;;;;;;7.78;4.75;;;;;;;6.77;73.92;98775.13;5113721;28;20418;-52
2022/09/29 04:47:29;;;;;;;8.65;6.68;;;;;;;6.70;73.72;98770.09;5113446;28;20055;-50
2022/09/29 04:49:58;;;;;;;9.13;6.45;;;;;;;6.67;73.77;98770.75;5095087;28;20059;-52
2022/09/29 04:52:25;;;;;;;10.32;6.70;;;;;;;6.65;72.91;98769.47;5092968;28;20059;-51
2022/09/29 04:54:52;;;;;;;7.00;5.20;;;;;;;6.63;73.59;98768.97;5092902;28;20484;-49
2022/09/29 04:57:19;;;;;;;5.50;4.00;;;;;;;6.58;73.96;98777.47;5093287;28;20059;-51
2022/09/29 04:59:50;;;;;;;6.22;4.55;;;;;;;6.55;73.62;98780.88;5092937;28;20416;-54
2022/09/29 05:02:18;;;;;;;6.18;5.00;;;;;;;6.53;74.40;98774.84;5092977;28;20056;-50
2022/09/29 05:04:46;;;;;;;8.70;5.88;;;;;;;6.57;73.90;98781.38;5108995;28;20496;-50
2022/09/29 05:07:15;;;;;;;7.18;5.45;;;;;;;6.56;74.17;98774.22;5113451;28;20059;-52
2022/09/29 05:09:42;;;;;;;7.22;5.40;;;;;;;6.53;73.70;98781.22;5113024;28;20060;-51
2022/09/29 05:12:09;;;;;;;11.10;6.78;;;;;;;6.47;73.73;98780.59;5113118;28;20067;-50
2022/09/29 05:14:37;;;;;;;9.18;6.90;;;;;;;6.45;73.51;98785.63;5113024;28;20055;-52
2022/09/29 05:17:05;;;;;;;9.73;6.70;;;;;;;6.41;73.87;98790.19;5105447;28;20048;-53
2022/09/29 05:19:33;;;;;;;8.80;6.40;;;;;;;6.42;74.18;98786.28;5107681;28;20518;-56
2022/09/29 05:22:00;;;;;;;10.60;6.47;;;;;;;6.39;73.60;98791.66;5092945;28;20063;-50
2022/09/29 05:24:29;;;;;;;8.63;6.18;;;;;;;6.39;73.88;98780.59;5096809;28;20059;-52
2022/09/29 05:26:56;;;;;;;9.60;6.40;;;;;;;6.37;73.93;98793.94;5108053;28;20067;-50
2022/09/29 05:29:23;;;;;;;8.90;6.55;;;;;;;6.32;73.42;98792.16;5093920;28;20051;-50
2022/09/29 05:31:51;;;;;;;12.57;6.53;;;;;;;6.28;73.42;98796.72;5095537;28;20055;-54
2022/09/29 05:34:18;;;;;;;8.73;6.65;;;;;;;6.27;73.87;98800.63;5100277;28;20052;-52
2022/09/29 05:36:46;;;;;;;9.13;5.82;;;;;;;6.25;73.40;98800.94;5092394;28;20052;-53
2022/09/29 05:39:13;;;;;;;7.32;6.13;;;;;;;6.25;73.64;98802.91;5112789;28;20055;-52
2022/09/29 05:41:41;;;;;;;9.13;6.15;;;;;;;6.22;73.97;98801.59;5111565;28;20058;-51
2022/09/29 05:44:09;;;;;;;9.27;6.15;;;;;;;6.25;74.08;98798.16;5100657;28;20419;-52
2022/09/29 05:46:36;;;;;;;12.07;6.32;;;;;;;6.25;74.13;98802.91;5109125;28;20056;-50
2022/09/29 05:49:03;;;;;;;6.80;5.45;;;;;;;6.28;74.08;98810.56;5112145;28;20055;-52
2022/09/29 05:51:30;;;;;;;10.45;6.55;;;;;;;6.36;73.73;98818.00;5102508;28;20523;-50
2022/09/29 05:53:58;;;;;;;8.30;6.32;;;;;;;6.38;73.82;98807.41;5096322;28;20493;-54
2022/09/29 05:56:28;;;;;;;9.93;6.88;;;;;;;6.32;74.02;98819.81;5098470;28;20048;-53
2022/09/29 05:58:56;;;;;;;8.48;6.22;;;;;;;6.32;74.16;98819.81;5098343;28;20051;-52
2022/09/29 06:01:25;;;;;;;7.45;6.28;;;;;;;6.36;73.72;98820.75;5109138;28;20059;-54
2022/09/29 06:03:54;;;;;;;10.25;6.30;;;;;;;6.41;74.16;98823.38;5119306;28;20067;-53
2022/09/29 06:06:23;;;;;;;7.75;5.72;;;;;;;6.48;73.76;98820.91;5114334;28;20052;-52
2022/09/29 06:08:51;;;;;;;5.80;5.20;;;;;;;6.52;73.94;98825.81;5118489;28;20051;-51
2022/09/29 06:11:20;;;;;;;7.25;5.78;;;;;;;6.60;73.63;98830.50;5114863;28;20492;-50
2022/09/29 06:13:49;;;;;;;9.57;5.47;;;;;;;6.69;72.83;98823.00;5098886;28;20060;-52
2022/09/29 06:16:20;;;;;;;8.80;5.35;;;;;;;6.94;73.00;98831.56;5117001;28;20055;-51
2022/09/29 06:18:48;;;;;;;7.82;5.10;;;;;;;7.16;71.42;98825.78;5117621;28;20066;-53
2022/09/29 06:21:17;;;;;;;6.47;5.07;;;;;;;7.40;70.42;98825.19;5098365;28;20091;-50
2022/09/29 06:23:45;;;;;;;8.77;5.63;;;;;;;7.67;69.73;98826.66;5098159;28;20059;-51
2022/09/29 06:26:15;;;;;;;8.00;4.88;;;;;;;8.02;69.95;98829.19;5098472;28;20048;-53
2022/09/29 06:28:42;;;;;;;8.05;5.22;;;;;;;8.47;67.71;98833.25;5098767;28;20060;-51
2022/09/29 06:31:13;;;;;;;6.70;4.63;;;;;;;8.99;66.16;98832.72;5098538;28;20052;-51
2022/09/29 06:33:43;;;;;;;5.03;4.53;;;;;;;9.49;64.50;98834.38;5106972;28;20060;-51
2022/09/29 06:39:01;;;;;;;7.65;4.75;;;;;;;10.47;61.88;98838.16;5119871;28;20388;-50
2022/09/29 06:41:29;;;;;;;5.80;4.97;;;;;;;10.94;61.09;98838.28;5103192;28;20059;-51
2022/09/29 06:43:56;;;;;;;7.03;5.70;;;;;;;11.53;59.16;98828.22;5110582;28;20063;-50
2022/09/29 06:46:25;;;;;;;7.57;4.88;;;;;;;12.13;58.00;98833.59;5119069;28;20396;-50
2022/09/29 06:48:54;;;;;;;6.67;4.93;;;;;;;12.80;56.99;98833.38;5118558;27;20059;-52
2022/09/29 06:51:22;;;;;;;8.45;5.18;;;;;;;13.55;54.21;98833.16;5116902;28;20477;-50
2022/09/29 06:53:49;;;;;;;5.53;4.40;;;;;;;14.23;52.21;98839.75;5118527;27;20059;-50
2022/09/29 06:56:17;;;;;;;5.78;3.75;;;;;;;14.66;50.90;98833.91;5118949;27;20059;-50
2022/09/29 06:58:45;;;;;;;5.15;4.00;;;;;;;15.30;49.04;98839.41;5118664;28;20078;-54
2022/09/29 07:01:13;;;;;;;6.28;4.45;;;;;;;15.88;47.54;98840.75;5119196;28;20051;-52
2022/09/29 07:03:41;;;;;;;6.63;5.22;;;;;;;16.46;46.24;98837.03;5118795;27;20056;-54
2022/09/29 07:06:11;;;;;;;6.07;4.07;;;;;;;16.99;44.95;98838.50;5111586;28;20071;-53
2022/09/29 07:08:39;;;;;;;6.93;4.65;;;;;;;17.62;43.72;98848.22;5115726;28;20051;-52
2022/09/29 07:11:06;;;;;;;6.50;4.65;;;;;;;18.00;42.43;98851.44;5115731;28;20059;-52
2022/09/29 07:13:34;;;;;;;11.50;5.30;;;;;;;18.45;41.73;98845.31;5115588;28;20052;-51
2022/09/29 07:16:09;;;;;;;5.88;5.28;;;;;;;19.10;40.09;98837.38;5115294;28;20070;-52
2022/09/29 07:18:37;;;;;;;6.50;5.38;;;;;;;19.47;39.58;98844.41;5115274;28;20052;-55
2022/09/29 07:21:05;;;;;;;6.67;5.40;;;;;;;20.06;38.55;98849.97;5105868;28;20056;-54
2022/09/29 07:23:34;;;;;;;8.60;6.25;;;;;;;20.60;37.57;98843.78;5100863;28;20484;-54
2022/09/29 07:26:01;;;;;;;7.63;5.60;;;;;;;21.21;36.44;98850.66;5105364;28;20052;-52
2022/09/29 07:28:29;;;;;;;7.40;6.65;;;;;;;21.75;35.18;98844.97;5094685;28;20055;-51
2022/09/29 07:31:00;;;;;;;8.70;7.03;;;;;;;22.36;34.75;98846.75;5094857;28;20492;-53
2022/09/29 07:33:28;;;;;;;9.27;6.93;;;;;;;22.88;33.76;98853.84;5094977;28;20483;-55
2022/09/29 07:35:56;;;;;;;6.32;5.60;;;;;;;23.59;33.00;98856.34;5107467;28;20401;-54
2022/09/29 07:38:23;;;;;;;9.20;5.77;;;;;;;24.05;32.26;98845.88;5114874;28;20059;-54
2022/09/29 07:40:52;;;;;;;6.82;4.97;;;;;;;24.49;31.44;98852.03;5115027;28;20399;-54
2022/09/29 07:43:19;;;;;;;6.95;4.82;;;;;;;24.84;30.73;98847.38;5108502;28;20059;-54
2022/09/29 07:45:49;;;;;;;5.65;4.82;;;;;;;25.37;29.87;98854.78;5094486;28;20062;-54
2022/09/29 07:48:16;;;;;;;;;;;;;;;25.17;30.37;98854.94;5094472;28;20476;-55
2022/09/29 07:50:43;;;;;;;6.15;5.45;;;;;;;25.87;29.34;98850.28;5094282;28;19927;-55
2022/09/29 07:53:12;;;;;;;6.05;5.43;;;;;;;26.19;29.09;98851.28;5093962;28;20051;-55
2022/09/29 07:55:40;;;;;;;6.05;4.95;;;;;;;26.66;28.23;98856.94;5093866;28;20059;-54
2022/09/29 07:58:08;;;;;;;6.65;5.20;;;;;;;27.16;28.04;98853.47;5093931;28;20059;-52
2022/09/29 08:00:35;;;;;;;6.07;5.47;;;;;;;27.46;27.21;98849.81;5093880;28;20074;-54
2022/09/29 08:03:05;;;;;;;7.60;4.88;;;;;;;27.80;26.92;98850.91;5093229;28;20052;-54
2022/09/29 08:05:33;;;;;;;5.82;4.88;;;;;;;28.34;26.57;98848.66;5096719;28;20048;-54
2022/09/29 08:08:01;;;;;;;5.18;4.68;;;;;;;28.65;25.81;98851.38;5113964;28;20492;-54
2022/09/29 08:10:29;;;;;;;7.30;5.05;;;;;;;28.96;25.85;98853.28;5114517;28;20055;-54
2022/09/29 08:12:57;;;;;;;5.72;4.78;;;;;;;29.30;25.79;98854.16;5114083;28;20051;-54
2022/09/29 08:15:26;;;;;;;5.72;5.13;;;;;;;29.61;25.03;98855.94;5114029;28;20055;-54
2022/09/29 08:17:54;;;;;;;5.78;5.28;;;;;;;29.85;25.31;98853.16;5106198;28;20044;-54
2022/09/29 08:20:22;;;;;;;6.25;5.35;;;;;;;30.08;24.33;98849.50;5093782;28;20400;-54
2022/09/29 08:22:49;;;;;;;5.55;5.05;;;;;;;30.07;24.67;98859.41;5093598;28;20466;-53
2022/09/29 08:25:17;;;;;;;6.18;5.32;;;;;;;30.73;23.98;98855.56;5093094;28;20433;-55
2022/09/29 08:27:45;;;;;;;5.30;4.85;;;;;;;31.10;23.38;98858.13;5113448;28;20051;-54
2022/09/29 08:30:13;;;;;;;5.33;4.73;;;;;;;31.57;22.82;98854.75;5113401;28;20056;-54
2022/09/29 08:32:41;;;;;;;5.33;4.83;;;;;;;31.95;22.49;98862.38;5113433;28;20457;-54
2022/09/29 08:35:09;;;;;;;;;;;;;;;31.52;22.71;98859.91;5112248;28;20493;-55
2022/09/29 08:37:37;;;;;;;4.85;4.13;;;;;;;31.90;22.15;98860.22;5113751;28;19920;-54
2022/09/29 08:40:06;;;;;;;5.22;4.55;;;;;;;32.39;22.11;98869.31;5113533;28;20066;-54
2022/09/29 08:42:48;;;;;;;4.97;4.47;;;;;;;32.94;21.76;98874.16;5113706;28;20067;-55
2022/09/29 08:45:28;;;;;;;4.88;3.35;;;;;;;33.32;21.43;98872.19;5113742;28;20384;-55
2022/09/29 08:48:05;;;;;;;4.20;3.80;;;;;;;33.57;21.05;98870.56;5106995;28;20409;-54
2022/09/29 08:50:41;;;;;;;4.53;4.03;;;;;;;34.11;19.89;98869.91;5093032;28;20063;-54
2022/09/29 08:53:12;;;;;;;5.22;4.32;;;;;;;34.14;20.76;98874.69;5092903;28;20104;-55
2022/09/29 08:55:45;;;;;;;5.55;4.22;;;;;;;34.92;19.80;98879.22;5093160;28;20075;-54
2022/09/29 08:58:15;;;;;;;3.97;3.58;;;;;;;35.02;19.79;98874.78;5092727;28;20404;-55
2022/09/29 09:00:54;;;;;;;10.43;3.65;;;;;;;34.63;19.51;98875.44;5092951;28;20067;-55
2022/09/29 09:03:58;;;;;;;5.22;4.22;;;;;;;34.89;19.98;98878.19;5092530;28;20424;-55
2022/09/29 09:06:36;;;;;;;4.72;3.72;;;;;;;35.33;19.52;98875.91;5092925;28;20060;-56
2022/09/29 09:09:29;;;;;;;3.72;3.40;;;;;;;35.64;18.92;98879.88;5092842;28;20079;-54
2022/09/29 09:12:23;;;;;;;5.70;3.90;;;;;;;35.74;19.23;98881.19;5092612;28;20056;-56
2022/09/29 09:15:06;;;;;;;5.38;3.40;;;;;;;36.06;18.29;98884.59;5065149;28;20056;-55
2022/09/29 09:17:54;;;;;;;4.65;3.30;;;;;;;36.37;18.00;98882.66;5104058;28;20056;-56
2022/09/29 09:20:31;;;;;;;3.25;2.95;;;;;;;36.86;17.78;98888.81;5112846;28;20062;-55
2022/09/29 09:23:01;;;;;;;4.47;3.30;;;;;;;37.20;17.84;98888.63;5112799;28;20055;-55
2022/09/29 09:25:31;;;;;;;6.38;3.60;;;;;;;37.32;17.16;98889.34;5110970;28;20473;-56
2022/09/29 09:28:04;;;;;;;4.72;3.20;;;;;;;37.62;17.13;98885.72;5112226;28;20062;-56
2022/09/29 09:30:39;;;;;;;4.82;3.25;;;;;;;38.05;17.29;98882.13;5112643;28;20479;-56
2022/09/29 09:33:13;;;;;;;4.05;3.55;;;;;;;38.03;17.29;98884.78;5108378;28;20074;-56
2022/09/29 09:35:47;;;;;;;3.40;2.92;;;;;;;38.17;17.09;98884.38;5092199;28;20488;-56
2022/09/29 09:38:19;;;;;;;4.40;3.58;;;;;;;38.32;17.08;98883.94;5092177;28;20056;-56
2022/09/29 09:40:49;;;;;;;3.85;3.10;;;;;;;38.69;16.80;98884.59;5092239;28;20451;-56
2022/09/29 09:43:20;;;;;;;4.88;4.32;;;;;;;39.02;15.94;98873.84;5092400;28;20060;-56
2022/09/29 09:45:55;;;;;;;4.25;3.55;;;;;;;37.13;16.19;98881.28;5092520;28;20465;-56
2022/09/29 09:48:30;;;;;;;4.20;3.80;;;;;;;37.20;16.83;98879.13;5092120;28;20056;-56
2022/09/29 09:51:01;;;;;;;5.18;3.72;;;;;;;37.92;16.75;98880.66;5092040;28;20063;-56
2022/09/29 09:53:35;;;;;;;3.90;3.05;;;;;;;38.31;15.54;98884.50;5092041;28;20504;-56
2022/09/29 09:56:12;;;;;;;3.92;3.63;;;;;;;38.73;15.10;98877.13;5092211;28;20052;-56
2022/09/29 09:59:09;;;;;;;4.30;3.53;;;;;;;37.52;16.54;98885.22;5091917;28;20056;-56
2022/09/29 10:01:36;;;;;;;4.20;3.60;;;;;;;35.31;17.40;98890.91;5091881;28;20063;-57
2022/09/29 10:04:04;;;;;;;6.55;3.80;;;;;;;32.95;19.15;98901.72;5111791;28;20435;-56
2022/09/29 10:06:33;;;;;;;4.50;3.05;;;;;;;31.45;20.67;98900.59;5109892;28;20074;-56
2022/09/29 10:09:01;;;;;;;4.43;3.58;;;;;;;29.97;22.34;98895.19;5091667;28;20052;-55
2022/09/29 10:11:30;;;;;;;4.97;3.38;;;;;;;31.50;21.33;98894.16;5102371;28;20056;-54
2022/09/29 10:14:02;;;;;;;4.00;3.38;;;;;;;32.64;20.55;98894.53;5112210;28;20052;-55
2022/09/29 10:16:40;;;;;;;4.90;3.70;;;;;;;33.96;20.20;98885.31;5110680;28;20127;-56
2022/09/29 10:19:07;;;;;;;4.33;3.60;;;;;;;33.33;20.03;98903.44;5091758;28;20063;-55
2022/09/29 10:21:40;;;;;;;3.72;3.33;;;;;;;34.07;20.14;98886.72;5092154;28;20830;-55
2022/09/29 10:24:22;;;;;;;3.60;2.95;;;;;;;35.15;17.16;98888.78;5092106;28;20056;-55
2022/09/29 10:26:52;;;;;;;3.72;3.28;;;;;;;35.21;17.10;98883.00;5107141;28;20500;-55
2022/09/29 10:29:28;;;;;;;3.72;2.67;;;;;;;35.05;17.10;98893.19;5112250;28;20052;-55
2022/09/29 10:32:07;;;;;;;3.78;2.88;;;;;;;34.24;17.43;98890.50;5111823;28;20056;-56
2022/09/29 10:34:36;;;;;;;3.90;2.83;;;;;;;32.85;18.30;98897.41;5111388;28;20523;-55
2022/09/29 10:37:19;;;;;;;3.55;3.22;;;;;;;31.73;20.01;98898.19;5111909;28;20059;-55
2022/09/29 10:39:48;;;;;;;4.38;3.60;;;;;;;31.08;20.99;98895.22;5111623;28;20079;-55
2022/09/29 10:42:21;;;;;;;;;;;;;;;31.71;20.37;98894.25;5116138;28;20079;-55
2022/09/29 10:44:52;;;;;;;3.85;2.80;;;;;;;30.99;20.93;98901.03;5115576;28;19919;-56
2022/09/29 10:47:21;;;;;;;3.60;3.10;;;;;;;29.47;22.05;98903.34;5115696;28;20055;-55
2022/09/29 10:50:07;;;;;;;4.35;3.45;;;;;;;29.04;23.66;98902.44;5115751;28;20056;-55
2022/09/29 10:52:36;;;;;;;4.28;3.05;;;;;;;30.46;22.12;98898.91;5115202;28;20051;-54
2022/09/29 10:55:05;;;;;;;4.22;2.70;;;;;;;31.20;20.58;98896.19;5097518;28;20056;-55
2022/09/29 10:57:36;;;;;;;4.65;1.98;;;;;;;32.62;18.54;98902.91;5095228;28;20068;-55
2022/09/29 11:00:05;;;;;;;4.75;1.98;;;;;;;33.70;18.76;98896.16;5095303;28;20063;-55
2022/09/29 11:02:36;;;;;;;3.20;1.98;;;;;;;34.87;17.74;98898.16;5095039;28;20059;-55
2022/09/29 11:05:16;;;;;;;3.00;1.92;;;;;;;35.83;16.24;98904.13;5095065;28;21268;-56
2022/09/29 11:07:48;;;;;;;2.38;2.05;;;;;;;36.25;16.07;98901.44;5094445;28;20060;-56
2022/09/29 11:10:28;;;;;;;2.42;2.05;;;;;;;37.07;15.77;98905.84;5110236;28;20048;-56
2022/09/29 11:12:57;;;;;;;2.67;2.13;;;;;;;37.38;15.47;98904.63;5115467;28;20080;-56
2022/09/29 11:15:27;;;;;;;4.47;2.00;;;;;;;36.83;15.96;98903.59;5115517;28;20479;-56
2022/09/29 11:17:55;;;;;;;5.75;2.50;;;;;;;37.72;15.61;98898.56;5115257;28;20063;-56
2022/09/29 11:20:28;;;;;;;2.72;1.77;;;;;;;36.95;16.03;98913.81;5115287;28;20060;-56
2022/09/29 11:23:19;;;;;;;2.72;2.13;;;;;;;37.61;15.21;98904.47;5112108;28;20043;-54
2022/09/29 11:26:09;;;;;;;4.88;2.47;;;;;;;38.44;15.09;98901.28;5095038;28;20059;-56
2022/09/29 11:28:54;;;;;;;2.25;1.83;;;;;;;39.20;14.42;98901.38;5095018;28;20059;-55
2022/09/29 11:31:40;;;;;;;3.10;2.00;;;;;;;39.40;13.81;98906.66;5094504;28;20063;-55
2022/09/29 11:34:30;;;;;;;2.42;1.70;;;;;;;39.65;13.82;98912.34;5081587;28;20060;-56
2022/09/29 11:37:05;;;;;;;2.30;1.70;;;;;;;39.97;13.57;98906.50;5094669;28;20060;-57
2022/09/29 11:39:44;;;;;;;2.58;2.05;;;;;;;40.05;13.56;98903.69;5094319;28;20416;-57
2022/09/29 11:42:27;;;;;;;2.92;1.70;;;;;;;38.28;14.22;98914.66;5094738;28;20060;-58
2022/09/29 11:44:59;;;;;;;3.17;1.80;;;;;;;36.03;15.67;98919.63;5107561;28;20063;-58
2022/09/29 11:48:00;;;;;;;3.50;2.03;;;;;;;34.30;17.56;98922.34;5114971;28;20073;-57
2022/09/29 11:50:43;;;;;;;3.70;1.80;;;;;;;32.63;19.28;98927.53;5114296;28;20051;-57
2022/09/29 11:53:24;;;;;;;3.38;1.83;;;;;;;31.25;20.33;98932.13;5098983;28;20051;-56
2022/09/29 11:56:08;;;;;;;4.13;2.03;;;;;;;29.99;22.32;98934.88;5094237;28;20060;-57
2022/09/29 11:58:50;;;;;;;3.80;1.92;;;;;;;28.78;23.13;98934.31;5094336;28;20059;-57
2022/09/29 12:01:37;;;;;;;3.30;2.00;;;;;;;27.80;24.47;98933.88;5083776;28;20061;-56